Tasman Mariner — VRWW8 — position and weather

sailwx.info

Track history (hours):
 
Tides and Currents Weather Stations Pressure Air Temp Water Temp Dewpoint Dewpoint Depression Visibility Wind Speed Wind Dir Waves Ship Positions

Tasman Mariner

Last reported at 2014-Oct-05 18:33 UTC. Time now 2014-Oct-23 18:38 UTC.
Position S 25°17' E 153°34'.
Warning: this ship's position is 18 days out of date.

Length 184 m; beam 27 m; draft 10 m.

Type: Cargo ship. MMSI: 477860000.

Date/timePositionNaut miles runAvg speedWind from/ knotsBaromVisibWave heightAir tempDewpointWater temp
2014-Oct-05 18:33S 25°17' E 153°34'29 9.5
2014-Oct-05 15:32S 25°45' E 153°27'10 9.7
2014-Oct-05 14:31S 25°55' E 153°25'9 9.5
2014-Oct-05 13:33S 26°03' E 153°23'9 9.3
2014-Oct-05 12:33S 26°13' E 153°21'9 9.3
2014-Oct-05 11:33S 26°22' E 153°19'9 9.4
2014-Oct-05 10:33S 26°31' E 153°17'9 9.3
2014-Oct-05 09:33S 26°40' E 153°14'1010.0
2014-Oct-05 08:33S 26°49' E 153°10'1313.0
2014-Oct-05 07:33S 27°01' E 153°15'1212.5
2014-Oct-05 06:33S 27°13' E 153°20'1212.2
2014-Oct-05 05:34S 27°22' E 153°11'0 0.2
2014-Oct-05 04:33S 27°22' E 153°11'0 0.0
2014-Oct-05 03:32S 27°22' E 153°11'0 0.0
2014-Oct-05 02:32S 27°22' E 153°11'0 0.0
2014-Oct-05 01:32S 27°22' E 153°11'0 0.0
2014-Oct-05 00:32S 27°22' E 153°11'0 0.0
2014-Oct-04 23:32S 27°22' E 153°11'0 0.0
2014-Oct-04 22:32S 27°22' E 153°11'0 0.0
2014-Oct-04 21:32S 27°22' E 153°11'0 0.0
2014-Oct-04 20:32S 27°22' E 153°11'0 0.0
2014-Oct-04 19:32S 27°22' E 153°11'0 0.0
2014-Oct-04 18:32S 27°22' E 153°11'0 0.0
2014-Oct-04 17:32S 27°22' E 153°11'0 0.0
2014-Oct-04 16:32S 27°22' E 153°11'0 0.0
2014-Oct-04 15:32S 27°22' E 153°11'0 0.0
2014-Oct-04 14:32S 27°22' E 153°11'0 0.1
2014-Oct-04 13:33S 27°22' E 153°11'7 6.7
2014-Oct-04 12:33S 27°16' E 153°15'1211.7
2014-Oct-04 11:34S 27°05' E 153°19'1414.3
2014-Oct-04 10:33S 26°53' E 153°10'10 9.7
2014-Oct-04 09:33S 26°43' E 153°11'5 5.3
2014-Oct-04 08:33S 26°47' E 153°15'0 0.0
2014-Oct-04 07:30S 26°47' E 153°15'0 0.1
2014-Oct-04 06:33S 26°47' E 153°15'0 0.0
2014-Oct-04 05:33S 26°47' E 153°15'0 0.0
2014-Oct-04 04:30S 26°47' E 153°15'0 0.0
2014-Oct-04 03:30S 26°47' E 153°15'0 0.0
2014-Oct-04 02:27S 26°47' E 153°15'0 0.0
2014-Oct-04 01:33S 26°47' E 153°15'0 0.0
2014-Oct-04 00:27S 26°47' E 153°15'0 0.0
2014-Oct-03 23:27S 26°47' E 153°15'0 0.0
2014-Oct-03 22:33S 26°47' E 153°15'0 0.0
2014-Oct-03 21:33S 26°47' E 153°15'0 0.0
2014-Oct-03 20:33S 26°47' E 153°15'0 0.0
2014-Oct-03 19:30S 26°47' E 153°15'0 0.0
2014-Oct-03 18:27S 26°47' E 153°15'0 0.0
2014-Oct-03 17:30S 26°47' E 153°15'0 0.0
2014-Oct-03 16:33S 26°47' E 153°15'0 0.1
2014-Oct-03 15:34S 26°47' E 153°15'0 0.2
2014-Oct-03 14:33S 26°47' E 153°15'8 8.2
2014-Oct-03 13:34S 26°50' E 153°24'10 9.9
2014-Oct-03 12:33S 26°55' E 153°33'9 9.2
2014-Oct-03 11:33S 27°03' E 153°38'10 9.6
2014-Oct-03 10:34S 27°13' E 153°39'9 8.8
2014-Oct-03 09:34S 27°21' E 153°39'8 8.3
2014-Oct-03 08:34S 27°30' E 153°40'8 8.1
2014-Oct-03 07:33S 27°38' E 153°40'8 7.8
2014-Oct-03 06:33S 27°46' E 153°40'8 8.1
2014-Oct-03 05:33S 27°54' E 153°41'8 8.2
2014-Oct-03 04:33S 28°02' E 153°41'9 8.5
2014-Oct-03 03:33S 28°10' E 153°42'261 9.6
2014-Oct-02 00:14S 32°26' E 152°39'7 9.7
2014-Oct-01 23:33S 32°32' E 152°35'1413.8
2014-Oct-01 22:33S 32°43' E 152°26'1110.7
2014-Oct-01 21:33S 32°52' E 152°19'10 9.5
2014-Oct-01 20:33S 32°60' E 152°12'10 9.8
2014-Oct-01 19:32S 33°08' E 152°05'10 9.6
2014-Oct-01 18:33S 33°16' E 151°60'28 0.7
2014-Sep-30 05:22S 33°33' E 151°33'910.7
2014-Sep-30 04:33S 33°25' E 151°38'18 3.9
2014-Sep-30 00:04S 33°08' E 151°44'0 0.0
2014-Sep-29 23:27S 33°08' E 151°44'0 0.0
2014-Sep-29 22:17S 33°08' E 151°44'0 0.0
2014-Sep-29 20:22S 33°08' E 151°44'1 1.5
2014-Sep-29 19:28S 33°09' E 151°45'1010.2
2014-Sep-29 18:27S 32°59' E 151°50'5 5.8
2014-Sep-29 17:33S 32°55' E 151°46'1 1.4
2014-Sep-29 16:33S 32°54' E 151°46'0 0.0
2014-Sep-29 15:33S 32°54' E 151°46'0 0.0
2014-Sep-29 14:33S 32°54' E 151°46'0 0.0
2014-Sep-29 13:33S 32°54' E 151°46'0 0.0
2014-Sep-29 12:33S 32°54' E 151°46'0 0.0
2014-Sep-29 11:33S 32°54' E 151°46'0 0.0
2014-Sep-29 10:33S 32°54' E 151°46'0 0.0
2014-Sep-29 09:33S 32°54' E 151°46'0 0.0
2014-Sep-29 08:30S 32°54' E 151°46'0 0.0
2014-Sep-29 07:33S 32°54' E 151°46'0 0.0
2014-Sep-29 06:33S 32°54' E 151°46'0 0.0
2014-Sep-29 05:33S 32°54' E 151°46'0 0.0
2014-Sep-29 04:33S 32°54' E 151°46'0 0.0
2014-Sep-29 03:33S 32°54' E 151°46'0 0.0
2014-Sep-29 02:33S 32°54' E 151°46'0 0.0
2014-Sep-29 01:33S 32°54' E 151°46'0 0.0
2014-Sep-29 00:33S 32°54' E 151°46'0 0.0
2014-Sep-28 23:33S 32°54' E 151°46'0 0.0
2014-Sep-28 22:33S 32°54' E 151°46'0 0.0
2014-Sep-28 21:33S 32°54' E 151°46'0 0.0
2014-Sep-28 20:33S 32°54' E 151°46'0 0.0
2014-Sep-28 19:33S 32°54' E 151°46'0 0.0
2014-Sep-28 18:33S 32°54' E 151°46'0 0.0
2014-Sep-28 17:33S 32°54' E 151°46'0 0.0
2014-Sep-28 16:33S 32°54' E 151°46'0 0.0
2014-Sep-28 15:30S 32°54' E 151°46'0 0.0
2014-Sep-28 14:33S 32°54' E 151°46'0 0.0
2014-Sep-28 13:33S 32°54' E 151°46'0 0.0
2014-Sep-28 12:33S 32°54' E 151°46'0 0.0
2014-Sep-28 11:33S 32°54' E 151°46'0 0.0
2014-Sep-28 10:33S 32°54' E 151°46'0 0.0
2014-Sep-28 09:33S 32°54' E 151°46'0 0.1
2014-Sep-28 08:33S 32°54' E 151°46'5 4.7
2014-Sep-28 07:33S 32°56' E 151°50'27210.0
2014-Sep-27 04:17S 37°16' E 150°10'810.8
2014-Sep-27 03:33S 37°24' E 150°10'1010.5
2014-Sep-27 02:33S 37°33' E 150°05'1110.7
2014-Sep-27 01:34S 37°42' E 149°57'1010.4
2014-Sep-27 00:33S 37°50' E 149°48'1010.3
2014-Sep-26 23:33S 37°57' E 149°38'1613.1
2014-Sep-26 22:21S 38°06' E 149°22'1910.7
2014-Sep-26 20:33S 38°18' E 149°03'1010.2
2014-Sep-26 19:33S 38°24' E 148°52'1610.4
2014-Sep-26 18:03S 38°34' E 148°37'510.5
2014-Sep-26 17:33S 38°37' E 148°32'1110.5
2014-Sep-26 16:33S 38°43' E 148°21'1110.4
2014-Sep-26 15:31S 38°49' E 148°09'1010.2
2014-Sep-26 14:30S 38°52' E 147°56'10 9.8
2014-Sep-26 13:30S 38°56' E 147°45'9 9.6
2014-Sep-26 12:33S 38°59' E 147°34'10 9.8
2014-Sep-26 11:33S 39°03' E 147°22'1010.1
2014-Sep-26 10:33S 39°06' E 147°10'1010.4
2014-Sep-26 09:33S 39°10' E 146°57'1110.8
2014-Sep-26 08:33S 39°14' E 146°44'1110.8
2014-Sep-26 07:33S 39°16' E 146°31'1110.9
2014-Sep-26 06:33S 39°17' E 146°17'1010.4
2014-Sep-26 05:33S 39°12' E 146°05'1110.6
2014-Sep-26 04:33S 39°06' E 145°54'1110.5
2014-Sep-26 03:33S 38°60' E 145°42'  
Track history (hours):
 
Tides and Currents Weather Stations Pressure Air Temp Water Temp Dewpoint Dewpoint Depression Visibility Wind Speed Wind Dir Waves Ship Positions

Tasman Mariner

Last reported at 2014-Oct-05 18:33 UTC. Time now 2014-Oct-23 18:38 UTC.
Position S 25°17' E 153°34'.
Warning: this ship's position is 18 days out of date.

Length 184 m; beam 27 m; draft 10 m.

Type: Cargo ship. MMSI: 477860000.

Date/timePositionNaut miles runAvg speedWind from/ knotsBaromVisibWave heightAir tempDewpointWater temp
2014-Oct-05 18:33S 25°17' E 153°34'29 9.5
2014-Oct-05 15:32S 25°45' E 153°27'10 9.7
2014-Oct-05 14:31S 25°55' E 153°25'9 9.5
2014-Oct-05 13:33S 26°03' E 153°23'9 9.3
2014-Oct-05 12:33S 26°13' E 153°21'9 9.3
2014-Oct-05 11:33S 26°22' E 153°19'9 9.4
2014-Oct-05 10:33S 26°31' E 153°17'9 9.3
2014-Oct-05 09:33S 26°40' E 153°14'1010.0
2014-Oct-05 08:33S 26°49' E 153°10'1313.0
2014-Oct-05 07:33S 27°01' E 153°15'1212.5
2014-Oct-05 06:33S 27°13' E 153°20'1212.2
2014-Oct-05 05:34S 27°22' E 153°11'0 0.2
2014-Oct-05 04:33S 27°22' E 153°11'0 0.0
2014-Oct-05 03:32S 27°22' E 153°11'0 0.0
2014-Oct-05 02:32S 27°22' E 153°11'0 0.0
2014-Oct-05 01:32S 27°22' E 153°11'0 0.0
2014-Oct-05 00:32S 27°22' E 153°11'0 0.0
2014-Oct-04 23:32S 27°22' E 153°11'0 0.0
2014-Oct-04 22:32S 27°22' E 153°11'0 0.0
2014-Oct-04 21:32S 27°22' E 153°11'0 0.0
2014-Oct-04 20:32S 27°22' E 153°11'0 0.0
2014-Oct-04 19:32S 27°22' E 153°11'0 0.0
2014-Oct-04 18:32S 27°22' E 153°11'0 0.0
2014-Oct-04 17:32S 27°22' E 153°11'0 0.0
2014-Oct-04 16:32S 27°22' E 153°11'0 0.0
2014-Oct-04 15:32S 27°22' E 153°11'0 0.0
2014-Oct-04 14:32S 27°22' E 153°11'0 0.1
2014-Oct-04 13:33S 27°22' E 153°11'7 6.7
2014-Oct-04 12:33S 27°16' E 153°15'1211.7
2014-Oct-04 11:34S 27°05' E 153°19'1414.3
2014-Oct-04 10:33S 26°53' E 153°10'10 9.7
2014-Oct-04 09:33S 26°43' E 153°11'5 5.3
2014-Oct-04 08:33S 26°47' E 153°15'0 0.0
2014-Oct-04 07:30S 26°47' E 153°15'0 0.1
2014-Oct-04 06:33S 26°47' E 153°15'0 0.0
2014-Oct-04 05:33S 26°47' E 153°15'0 0.0
2014-Oct-04 04:30S 26°47' E 153°15'0 0.0
2014-Oct-04 03:30S 26°47' E 153°15'0 0.0
2014-Oct-04 02:27S 26°47' E 153°15'0 0.0
2014-Oct-04 01:33S 26°47' E 153°15'0 0.0
2014-Oct-04 00:27S 26°47' E 153°15'0 0.0
2014-Oct-03 23:27S 26°47' E 153°15'0 0.0
2014-Oct-03 22:33S 26°47' E 153°15'0 0.0
2014-Oct-03 21:33S 26°47' E 153°15'0 0.0
2014-Oct-03 20:33S 26°47' E 153°15'0 0.0
2014-Oct-03 19:30S 26°47' E 153°15'0 0.0
2014-Oct-03 18:27S 26°47' E 153°15'0 0.0
2014-Oct-03 17:30S 26°47' E 153°15'0 0.0
2014-Oct-03 16:33S 26°47' E 153°15'0 0.1
2014-Oct-03 15:34S 26°47' E 153°15'0 0.2
2014-Oct-03 14:33S 26°47' E 153°15'8 8.2
2014-Oct-03 13:34S 26°50' E 153°24'10 9.9
2014-Oct-03 12:33S 26°55' E 153°33'9 9.2
2014-Oct-03 11:33S 27°03' E 153°38'10 9.6
2014-Oct-03 10:34S 27°13' E 153°39'9 8.8
2014-Oct-03 09:34S 27°21' E 153°39'8 8.3
2014-Oct-03 08:34S 27°30' E 153°40'8 8.1
2014-Oct-03 07:33S 27°38' E 153°40'8 7.8
2014-Oct-03 06:33S 27°46' E 153°40'8 8.1
2014-Oct-03 05:33S 27°54' E 153°41'8 8.2
2014-Oct-03 04:33S 28°02' E 153°41'9 8.5
2014-Oct-03 03:33S 28°10' E 153°42'261 9.6
2014-Oct-02 00:14S 32°26' E 152°39'7 9.7
2014-Oct-01 23:33S 32°32' E 152°35'1413.8
2014-Oct-01 22:33S 32°43' E 152°26'1110.7
2014-Oct-01 21:33S 32°52' E 152°19'10 9.5
2014-Oct-01 20:33S 32°60' E 152°12'10 9.8
2014-Oct-01 19:32S 33°08' E 152°05'10 9.6
2014-Oct-01 18:33S 33°16' E 151°60'28 0.7
2014-Sep-30 05:22S 33°33' E 151°33'910.7
2014-Sep-30 04:33S 33°25' E 151°38'18 3.9
2014-Sep-30 00:04S 33°08' E 151°44'0 0.0
2014-Sep-29 23:27S 33°08' E 151°44'0 0.0
2014-Sep-29 22:17S 33°08' E 151°44'0 0.0
2014-Sep-29 20:22S 33°08' E 151°44'1 1.5
2014-Sep-29 19:28S 33°09' E 151°45'1010.2
2014-Sep-29 18:27S 32°59' E 151°50'5 5.8
2014-Sep-29 17:33S 32°55' E 151°46'1 1.4
2014-Sep-29 16:33S 32°54' E 151°46'0 0.0
2014-Sep-29 15:33S 32°54' E 151°46'0 0.0
2014-Sep-29 14:33S 32°54' E 151°46'0 0.0
2014-Sep-29 13:33S 32°54' E 151°46'0 0.0
2014-Sep-29 12:33S 32°54' E 151°46'0 0.0
2014-Sep-29 11:33S 32°54' E 151°46'0 0.0
2014-Sep-29 10:33S 32°54' E 151°46'0 0.0
2014-Sep-29 09:33S 32°54' E 151°46'0 0.0
2014-Sep-29 08:30S 32°54' E 151°46'0 0.0
2014-Sep-29 07:33S 32°54' E 151°46'0 0.0
2014-Sep-29 06:33S 32°54' E 151°46'0 0.0
2014-Sep-29 05:33S 32°54' E 151°46'0 0.0
2014-Sep-29 04:33S 32°54' E 151°46'0 0.0
2014-Sep-29 03:33S 32°54' E 151°46'0 0.0
2014-Sep-29 02:33S 32°54' E 151°46'0 0.0
2014-Sep-29 01:33S 32°54' E 151°46'0 0.0
2014-Sep-29 00:33S 32°54' E 151°46'0 0.0
2014-Sep-28 23:33S 32°54' E 151°46'0 0.0
2014-Sep-28 22:33S 32°54' E 151°46'0 0.0
2014-Sep-28 21:33S 32°54' E 151°46'0 0.0
2014-Sep-28 20:33S 32°54' E 151°46'0 0.0
2014-Sep-28 19:33S 32°54' E 151°46'0 0.0
2014-Sep-28 18:33S 32°54' E 151°46'0 0.0
2014-Sep-28 17:33S 32°54' E 151°46'0 0.0
2014-Sep-28 16:33S 32°54' E 151°46'0 0.0
2014-Sep-28 15:30S 32°54' E 151°46'0 0.0
2014-Sep-28 14:33S 32°54' E 151°46'0 0.0
2014-Sep-28 13:33S 32°54' E 151°46'0 0.0
2014-Sep-28 12:33S 32°54' E 151°46'0 0.0
2014-Sep-28 11:33S 32°54' E 151°46'0 0.0
2014-Sep-28 10:33S 32°54' E 151°46'0 0.0
2014-Sep-28 09:33S 32°54' E 151°46'0 0.1
2014-Sep-28 08:33S 32°54' E 151°46'5 4.7
2014-Sep-28 07:33S 32°56' E 151°50'27210.0
2014-Sep-27 04:17S 37°16' E 150°10'810.8
2014-Sep-27 03:33S 37°24' E 150°10'1010.5
2014-Sep-27 02:33S 37°33' E 150°05'1110.7
2014-Sep-27 01:34S 37°42' E 149°57'1010.4
2014-Sep-27 00:33S 37°50' E 149°48'1010.3
2014-Sep-26 23:33S 37°57' E 149°38'1613.1
2014-Sep-26 22:21S 38°06' E 149°22'1910.7
2014-Sep-26 20:33S 38°18' E 149°03'1010.2
2014-Sep-26 19:33S 38°24' E 148°52'1610.4
2014-Sep-26 18:03S 38°34' E 148°37'510.5
2014-Sep-26 17:33S 38°37' E 148°32'1110.5
2014-Sep-26 16:33S 38°43' E 148°21'1110.4
2014-Sep-26 15:31S 38°49' E 148°09'1010.2
2014-Sep-26 14:30S 38°52' E 147°56'10 9.8
2014-Sep-26 13:30S 38°56' E 147°45'9 9.6
2014-Sep-26 12:33S 38°59' E 147°34'10 9.8
2014-Sep-26 11:33S 39°03' E 147°22'1010.1
2014-Sep-26 10:33S 39°06' E 147°10'1010.4
2014-Sep-26 09:33S 39°10' E 146°57'1110.8
2014-Sep-26 08:33S 39°14' E 146°44'1110.8
2014-Sep-26 07:33S 39°16' E 146°31'1110.9
2014-Sep-26 06:33S 39°17' E 146°17'1010.4
2014-Sep-26 05:33S 39°12' E 146°05'1110.6
2014-Sep-26 04:33S 39°06' E 145°54'1110.5
2014-Sep-26 03:33S 38°60' E 145°42'  

Dump ship's entire track history